Station Historical Data
Daily Summary for February 27, 2017 Units:  English    Metric   Both
Next Day »
Daily Weekly Monthly Yearly Custom
  High: Low: Average:
Temperature: 43.0 °F 31.9 °F 35.6 °F
Dew Point: 33.8 °F 28.1 °F 31.6 °F
Humidity: 92% 56% 86%
Wind Speed: 11.0mph 0.0mph 0.8mph
Wind Gust: 12.0mph - -
Wind- - SSW
Pressure: 30.06 in 29.92 in -
Precipitation: 0.00 in    
Historical Graphs
 
 
Tabular Data for February 27, 2017
Time Temperature Dew Point Pressure Wind Wind Speed Wind Gust Humidity Rainfall Rate (Hourly) solar Conditions
00:01 35.5 °F 33.4 °F 29.93 in SSE 5.0 mph 12.0 mph 92% 0.00 in 0.00 W/m2
00:06 35.5 °F 33.4 °F 29.93 in SW 7.0 mph 10.0 mph 92% 0.00 in 0.00 W/m2
00:11 35.4 °F 33.3 °F 29.93 in SW 5.0 mph 11.0 mph 92% 0.00 in 0.00 W/m2
00:16 35.3 °F 33.2 °F 29.93 in SW 6.0 mph 12.0 mph 92% 0.00 in 0.00 W/m2
00:21 35.3 °F 33.2 °F 29.94 in SSW 5.0 mph 9.0 mph 92% 0.00 in 0.00 W/m2
00:26 35.2 °F 32.8 °F 29.94 in SW 6.0 mph 9.0 mph 91% 0.00 in 0.00 W/m2
00:31 35.1 °F 33.0 °F 29.93 in SSW 2.0 mph 8.0 mph 92% 0.00 in 0.00 W/m2
00:36 35.1 °F 33.0 °F 29.93 in SSW 8.0 mph 10.0 mph 92% 0.00 in 0.00 W/m2
00:41 35.1 °F 33.0 °F 29.93 in SSW 4.0 mph 10.0 mph 92% 0.00 in 0.00 W/m2
00:46 35.0 °F 32.9 °F 29.94 in SSW 3.0 mph 9.0 mph 92% 0.00 in 0.00 W/m2
00:51 35.0 °F 32.9 °F 29.94 in SSW 6.0 mph 10.0 mph 92% 0.00 in 0.00 W/m2
00:56 35.0 °F 32.9 °F 29.94 in South 3.0 mph 10.0 mph 92% 0.00 in 0.00 W/m2
01:01 35.0 °F 32.9 °F 29.94 in SSW 3.0 mph 10.0 mph 92% 0.00 in 0.00 W/m2
01:06 34.9 °F 32.8 °F 29.94 in SSW 5.0 mph 12.0 mph 92% 0.00 in 0.00 W/m2
01:07 34.9 °F 32.8 °F 29.94 in SSW 6.0 mph 8.0 mph 92% 0.00 in 0.00 W/m2
01:12 34.9 °F 32.8 °F 29.94 in South 2.0 mph 6.0 mph 92% 0.00 in 0.00 W/m2
01:17 34.8 °F 32.7 °F 29.94 in South 4.0 mph 6.0 mph 92% 0.00 in 0.00 W/m2
01:22 34.8 °F 32.7 °F 29.94 in South 2.0 mph 9.0 mph 92% 0.00 in 0.00 W/m2
01:27 34.8 °F 32.7 °F 29.94 in South 2.0 mph 6.0 mph 92% 0.00 in 0.00 W/m2
01:32 34.8 °F 32.7 °F 29.94 in South 5.0 mph 6.0 mph 92% 0.00 in 0.00 W/m2
01:37 34.7 °F 32.6 °F 29.94 in SSW 7.0 mph 7.0 mph 92% 0.00 in 0.00 W/m2
01:42 34.7 °F 32.6 °F 29.94 in Calm   4.0 mph 92% 0.00 in 0.00 W/m2
01:47 34.6 °F 32.5 °F 29.94 in SSW 4.0 mph 7.0 mph 92% 0.00 in 0.00 W/m2
01:52 34.5 °F 32.4 °F 29.94 in Calm   3.0 mph 92% 0.00 in 0.00 W/m2
01:57 34.5 °F 32.4 °F 29.94 in Calm     92% 0.00 in 0.00 W/m2
02:02 34.4 °F 32.3 °F 29.93 in Calm   8.0 mph 92% 0.00 in 0.00 W/m2
02:07 34.3 °F 32.2 °F 29.93 in Calm   8.0 mph 92% 0.00 in 0.00 W/m2
02:12 34.3 °F 32.2 °F 29.93 in SSW 5.0 mph 7.0 mph 92% 0.00 in 0.00 W/m2
02:17 34.2 °F 32.1 °F 29.93 in SSW 3.0 mph 6.0 mph 92% 0.00 in 0.00 W/m2
02:22 34.1 °F 32.0 °F 29.93 in Calm   5.0 mph 92% 0.00 in 0.00 W/m2
02:27 34.1 °F 32.0 °F 29.93 in Calm     92% 0.00 in 0.00 W/m2
02:32 34.0 °F 31.9 °F 29.93 in Calm     92% 0.00 in 0.00 W/m2
02:37 33.9 °F 31.8 °F 29.93 in South 5.0 mph 9.0 mph 92% 0.00 in 0.00 W/m2
02:42 33.9 °F 31.8 °F 29.93 in Calm     92% 0.00 in 0.00 W/m2
02:47 33.9 °F 31.8 °F 29.93 in Calm     92% 0.00 in 0.00 W/m2
02:52 33.9 °F 31.8 °F 29.93 in Calm     92% 0.00 in 0.00 W/m2
02:57 33.9 °F 31.8 °F 29.93 in SSW 4.0 mph 8.0 mph 92% 0.00 in 0.00 W/m2
03:02 33.9 °F 31.8 °F 29.93 in Calm     92% 0.00 in 0.00 W/m2
03:07 33.9 °F 31.8 °F 29.92 in Calm     92% 0.00 in 0.00 W/m2
03:12 33.9 °F 31.8 °F 29.92 in Calm     92% 0.00 in 0.00 W/m2
03:17 34.0 °F 31.9 °F 29.93 in Calm     92% 0.00 in 0.00 W/m2
03:22 34.0 °F 31.9 °F 29.93 in Calm     92% 0.00 in 0.00 W/m2
03:27 34.0 °F 31.9 °F 29.93 in Calm     92% 0.00 in 0.00 W/m2
03:32 34.0 °F 31.9 °F 29.93 in Calm     92% 0.00 in 0.00 W/m2
03:37 34.0 °F 31.9 °F 29.93 in Calm     92% 0.00 in 0.00 W/m2
03:42 34.0 °F 31.9 °F 29.93 in Calm     92% 0.00 in 0.00 W/m2
03:47 34.0 °F 31.9 °F 29.93 in Calm     92% 0.00 in 0.00 W/m2
03:52 34.1 °F 32.0 °F 29.93 in Calm     92% 0.00 in 0.00 W/m2
03:57 34.1 °F 32.0 °F 29.93 in Calm     92% 0.00 in 0.00 W/m2
04:02 34.1 °F 32.0 °F 29.93 in Calm     92% 0.00 in 0.00 W/m2
04:07 34.1 °F 32.0 °F 29.93 in Calm     92% 0.00 in 0.00 W/m2
04:12 34.1 °F 32.0 °F 29.93 in Calm     92% 0.00 in 0.00 W/m2
04:17 34.1 °F 32.0 °F 29.93 in Calm     92% 0.00 in 0.00 W/m2
04:23 34.2 °F 32.1 °F 29.93 in Calm     92% 0.00 in 0.00 W/m2
04:28 34.2 °F 32.1 °F 29.93 in Calm     92% 0.00 in 0.00 W/m2
04:33 34.2 °F 32.1 °F 29.93 in Calm     92% 0.00 in 0.00 W/m2
04:38 34.2 °F 32.1 °F 29.93 in Calm     92% 0.00 in 0.00 W/m2
04:43 34.2 °F 32.1 °F 29.93 in Calm     92% 0.00 in 0.00 W/m2
04:48 34.2 °F 32.1 °F 29.93 in Calm     92% 0.00 in 0.00 W/m2
04:53 34.2 °F 32.1 °F 29.93 in Calm     92% 0.00 in 0.00 W/m2
04:58 34.2 °F 32.1 °F 29.93 in Calm     92% 0.00 in 0.00 W/m2
05:03 34.2 °F 32.1 °F 29.93 in Calm     92% 0.00 in 0.00 W/m2
05:08 34.2 °F 32.1 °F 29.93 in Calm     92% 0.00 in 0.00 W/m2
05:13 34.2 °F 32.1 °F 29.93 in Calm     92% 0.00 in 0.00 W/m2
05:18 34.1 °F 32.0 °F 29.93 in SSE 8.0 mph 11.0 mph 92% 0.00 in 0.00 W/m2
05:23 34.1 °F 32.0 °F 29.93 in SSE 5.0 mph 9.0 mph 92% 0.00 in 0.00 W/m2
05:28 34.0 °F 31.9 °F 29.93 in SSE 5.0 mph 9.0 mph 92% 0.00 in 0.00 W/m2
05:33 34.0 °F 31.9 °F 29.93 in SSE 2.0 mph 9.0 mph 92% 0.00 in 0.00 W/m2
05:38 33.9 °F 31.8 °F 29.94 in Calm   7.0 mph 92% 0.00 in 0.00 W/m2
05:43 33.9 °F 31.8 °F 29.94 in Calm     92% 0.00 in 0.00 W/m2
05:48 33.9 °F 31.8 °F 29.94 in Calm     92% 0.00 in 0.00 W/m2
05:53 33.9 °F 31.8 °F 29.94 in Calm     92% 0.00 in 0.00 W/m2
05:58 33.9 °F 31.8 °F 29.95 in Calm     92% 0.00 in 0.00 W/m2
06:03 33.9 °F 31.8 °F 29.95 in Calm     92% 0.00 in 0.00 W/m2
06:08 33.9 °F 31.8 °F 29.95 in South 9.0 mph 9.0 mph 92% 0.00 in 0.00 W/m2
06:13 33.9 °F 31.8 °F 29.95 in South 9.0 mph 10.0 mph 92% 0.00 in 0.00 W/m2
06:18 33.9 °F 31.8 °F 29.95 in South 5.0 mph 6.0 mph 92% 0.00 in 0.00 W/m2
06:23 33.8 °F 31.7 °F 29.95 in Calm     92% 0.00 in 0.00 W/m2
06:28 33.7 °F 31.6 °F 29.95 in Calm     92% 0.00 in 0.00 W/m2
06:33 33.7 °F 31.6 °F 29.95 in Calm     92% 0.00 in 0.00 W/m2
06:38 33.7 °F 31.6 °F 29.95 in Calm     92% 0.00 in 0.00 W/m2
06:43 33.7 °F 31.6 °F 29.95 in Calm     92% 0.00 in 0.00 W/m2
06:48 33.7 °F 31.6 °F 29.95 in Calm     92% 0.00 in 0.00 W/m2
06:53 33.7 °F 31.6 °F 29.95 in Calm     92% 0.00 in 5.00 W/m2
06:58 33.7 °F 31.6 °F 29.96 in Calm     92% 0.00 in 9.00 W/m2
07:03 33.7 °F 31.6 °F 29.96 in Calm     92% 0.00 in 12.00 W/m2
07:08 33.8 °F 31.7 °F 29.96 in Calm     92% 0.00 in 16.00 W/m2
07:13 33.7 °F 31.6 °F 29.96 in Calm     92% 0.00 in 25.00 W/m2
07:14 33.7 °F 31.6 °F 29.96 in Calm     92% 0.00 in 25.00 W/m2
07:19 33.7 °F 31.6 °F 29.97 in Calm     92% 0.00 in 18.00 W/m2
07:24 33.7 °F 31.6 °F 29.97 in Calm     92% 0.00 in 33.00 W/m2
07:29 33.7 °F 31.6 °F 29.97 in Calm     92% 0.00 in 44.00 W/m2
07:34 33.8 °F 31.7 °F 29.97 in Calm     92% 0.00 in 77.00 W/m2
07:39 33.8 °F 31.7 °F 29.97 in Calm     92% 0.00 in 62.00 W/m2
07:44 33.9 °F 31.8 °F 29.97 in Calm     92% 0.00 in 79.00 W/m2
07:49 34.0 °F 31.9 °F 29.97 in Calm     92% 0.00 in 146.00 W/m2
07:54 34.0 °F 31.9 °F 29.98 in Calm     92% 0.00 in 102.00 W/m2
07:59 34.1 °F 32.0 °F 29.98 in Calm     92% 0.00 in 72.00 W/m2
08:04 34.2 °F 32.1 °F 29.98 in South 4.0 mph 7.0 mph 92% 0.00 in 70.00 W/m2
08:09 34.2 °F 32.1 °F 29.98 in South 2.0 mph 5.0 mph 92% 0.00 in 91.00 W/m2
08:14 34.2 °F 32.1 °F 29.99 in Calm   7.0 mph 92% 0.00 in 81.00 W/m2
08:19 34.2 °F 32.1 °F 29.99 in Calm     92% 0.00 in 102.00 W/m2
08:24 34.3 °F 32.2 °F 29.99 in Calm     92% 0.00 in 146.00 W/m2
08:29 34.3 °F 32.2 °F 29.99 in Calm   1.0 mph 92% 0.00 in 174.00 W/m2
08:34 34.3 °F 32.2 °F 29.99 in Calm     92% 0.00 in 276.00 W/m2
08:39 34.4 °F 32.3 °F 29.99 in Calm     92% 0.00 in 257.00 W/m2
08:44 34.5 °F 32.4 °F 29.99 in Calm     92% 0.00 in 192.00 W/m2
08:49 34.6 °F 32.5 °F 29.99 in Calm     92% 0.00 in 183.00 W/m2
08:54 34.6 °F 32.5 °F 30.00 in Calm     92% 0.00 in 253.00 W/m2
08:59 34.6 °F 32.5 °F 30.00 in Calm     92% 0.00 in 162.00 W/m2
09:04 34.7 °F 32.6 °F 30.00 in Calm     92% 0.00 in 132.00 W/m2
09:09 34.7 °F 32.6 °F 30.00 in Calm     92% 0.00 in 127.00 W/m2
09:14 34.8 °F 32.7 °F 30.00 in Calm     92% 0.00 in 146.00 W/m2
09:19 34.9 °F 32.8 °F 30.00 in Calm     92% 0.00 in 243.00 W/m2
09:24 34.8 °F 32.7 °F 30.00 in Calm     92% 0.00 in 223.00 W/m2
09:29 34.8 °F 32.5 °F 30.00 in Calm     91% 0.00 in 645.00 W/m2
09:34 35.0 °F 32.6 °F 30.00 in Calm     91% 0.00 in 360.00 W/m2
09:39 35.2 °F 32.8 °F 30.00 in Calm     91% 0.00 in 717.00 W/m2
09:44 35.3 °F 32.7 °F 30.00 in Calm     90% 0.00 in 269.00 W/m2
09:49 35.3 °F 32.4 °F 30.00 in Calm     89% 0.00 in 768.00 W/m2
09:54 35.6 °F 32.7 °F 30.00 in Calm     89% 0.00 in 791.00 W/m2
09:59 35.9 °F 33.0 °F 30.00 in Calm   7.0 mph 89% 0.00 in 744.00 W/m2
10:04 36.1 °F 32.9 °F 30.00 in Calm   1.0 mph 88% 0.00 in 195.00 W/m2
10:09 36.3 °F 32.5 °F 30.00 in Calm   1.0 mph 86% 0.00 in 239.00 W/m2
10:14 36.5 °F 32.1 °F 30.01 in Calm     84% 0.00 in 816.00 W/m2
10:19 36.6 °F 32.2 °F 30.01 in Calm     84% 0.00 in 807.00 W/m2
10:24 36.8 °F 32.1 °F 30.01 in Calm     83% 0.00 in 148.00 W/m2
10:29 36.9 °F 32.2 °F 30.01 in Calm     83% 0.00 in 192.00 W/m2
10:34 37.0 °F 31.7 °F 30.01 in Calm     81% 0.00 in 819.00 W/m2
10:39 37.1 °F 31.2 °F 30.01 in Calm     79% 0.00 in 148.00 W/m2
10:44 37.1 °F 30.6 °F 30.01 in Calm     77% 0.00 in 121.00 W/m2
10:49 37.2 °F 30.0 °F 30.01 in Calm     75% 0.00 in 105.00 W/m2
10:54 37.3 °F 30.8 °F 30.01 in Calm     77% 0.00 in 90.00 W/m2
10:55 37.2 °F 30.7 °F 30.01 in Calm     77% 0.00 in 93.00 W/m2
11:00 37.2 °F 31.0 °F 30.01 in Calm     78% 0.00 in 97.00 W/m2
11:05 37.2 °F 31.3 °F 30.01 in Calm     79% 0.00 in 155.00 W/m2
11:10 37.2 °F 31.9 °F 30.01 in Calm     81% 0.00 in 139.00 W/m2
11:15 37.1 °F 31.8 °F 30.01 in Calm     81% 0.00 in 137.00 W/m2
11:20 37.0 °F 31.7 °F 30.01 in Calm     81% 0.00 in 116.00 W/m2
11:21 37.0 °F 31.7 °F 30.01 in Calm     81% 0.00 in 118.00 W/m2
11:26 37.0 °F 32.3 °F 30.01 in Calm     83% 0.00 in 114.00 W/m2
11:31 37.0 °F 32.0 °F 30.01 in Calm     82% 0.00 in 107.00 W/m2
11:36 37.0 °F 31.4 °F 30.01 in Calm     80% 0.00 in 149.00 W/m2
11:41 37.0 °F 32.0 °F 30.01 in Calm     82% 0.00 in 149.00 W/m2
11:46 37.1 °F 32.7 °F 30.01 in Calm     84% 0.00 in 128.00 W/m2
11:51 37.1 °F 32.7 °F 30.01 in Calm     84% 0.00 in 134.00 W/m2
11:56 37.1 °F 32.1 °F 30.01 in Calm     82% 0.00 in 118.00 W/m2
12:01 37.1 °F 32.1 °F 30.01 in Calm     82% 0.00 in 130.00 W/m2
12:06 37.2 °F 32.5 °F 30.01 in Calm     83% 0.00 in 162.00 W/m2
12:11 37.3 °F 32.9 °F 30.01 in Calm     84% 0.00 in 195.00 W/m2
12:16 37.4 °F 33.3 °F 30.01 in Calm     85% 0.00 in 111.00 W/m2
12:21 37.5 °F 32.5 °F 30.01 in Calm     82% 0.00 in 127.00 W/m2
12:26 37.6 °F 31.7 °F 30.01 in Calm     79% 0.00 in 151.00 W/m2
12:31 37.7 °F 32.1 °F 30.00 in Calm     80% 0.00 in 97.00 W/m2
12:36 37.8 °F 32.2 °F 30.00 in Calm     80% 0.00 in 100.00 W/m2
12:41 37.9 °F 32.3 °F 30.00 in Calm     80% 0.00 in 107.00 W/m2
12:46 38.0 °F 32.4 °F 30.00 in Calm     80% 0.00 in 100.00 W/m2
12:51 38.0 °F 33.3 °F 30.00 in Calm     83% 0.00 in 91.00 W/m2
12:56 38.0 °F 33.3 °F 30.00 in Calm     83% 0.00 in 76.00 W/m2
13:01 38.0 °F 33.3 °F 29.99 in Calm     83% 0.00 in 79.00 W/m2
13:06 37.9 °F 32.3 °F 29.99 in Calm     80% 0.00 in 76.00 W/m2
13:11 37.9 °F 32.3 °F 29.99 in Calm     80% 0.00 in 88.00 W/m2
13:16 37.9 °F 32.6 °F 29.99 in Calm     81% 0.00 in 105.00 W/m2
13:21 37.9 °F 32.9 °F 29.99 in Calm     82% 0.00 in 149.00 W/m2
13:26 37.9 °F 33.5 °F 29.99 in Calm     84% 0.00 in 121.00 W/m2
13:31 38.0 °F 33.3 °F 29.99 in Calm     83% 0.00 in 104.00 W/m2
13:36 38.0 °F 33.6 °F 29.99 in Calm     84% 0.00 in 104.00 W/m2
13:41 38.1 °F 33.7 °F 29.99 in Calm     84% 0.00 in 132.00 W/m2
13:46 38.1 °F 33.4 °F 29.99 in Calm     83% 0.00 in 149.00 W/m2
13:51 38.1 °F 33.1 °F 29.98 in Calm     82% 0.00 in 745.00 W/m2
13:56 38.3 °F 33.3 °F 29.98 in Calm     82% 0.00 in 786.00 W/m2
14:01 38.6 °F 33.0 °F 29.98 in Calm     80% 0.00 in 756.00 W/m2
14:06 39.2 °F 31.0 °F 29.98 in Calm     72% 0.00 in 726.00 W/m2
14:11 39.8 °F 31.5 °F 29.98 in Calm   2.0 mph 72% 0.00 in 726.00 W/m2
14:16 40.6 °F 29.8 °F 29.98 in South 4.0 mph 4.0 mph 65% 0.00 in 740.00 W/m2
14:21 41.4 °F 30.5 °F 29.98 in West 3.0 mph 7.0 mph 65% 0.00 in 710.00 W/m2
14:26 42.0 °F 31.5 °F 29.98 in SW 3.0 mph 4.0 mph 66% 0.00 in 694.00 W/m2
14:31 42.4 °F 31.1 °F 29.98 in WSW 1.0 mph 1.0 mph 64% 0.00 in 680.00 W/m2
14:36 42.7 °F 28.5 °F 29.98 in West 3.0 mph 5.0 mph 57% 0.00 in 663.00 W/m2
14:41 42.9 °F 28.7 °F 29.98 in Calm   7.0 mph 57% 0.00 in 675.00 W/m2
14:46 43.0 °F 28.8 °F 29.98 in WSW 1.0 mph 6.0 mph 57% 0.00 in 178.00 W/m2
14:56 42.7 °F 28.1 °F 29.98 in Calm   2.0 mph 56% 0.00 in 169.00 W/m2
15:01 42.5 °F 29.6 °F 29.98 in WNW 1.0 mph 2.0 mph 60% 0.00 in 146.00 W/m2
15:06 42.4 °F 29.5 °F 29.98 in WNW 1.0 mph 1.0 mph 60% 0.00 in 95.00 W/m2
15:11 42.2 °F 30.9 °F 29.98 in NW 1.0 mph 3.0 mph 64% 0.00 in 93.00 W/m2
15:16 41.9 °F 32.1 °F 29.98 in NW 1.0 mph 5.0 mph 68% 0.00 in 93.00 W/m2
15:21 41.5 °F 32.1 °F 29.98 in Calm   5.0 mph 69% 0.00 in 95.00 W/m2
15:26 41.2 °F 32.5 °F 29.99 in NW 1.0 mph 6.0 mph 71% 0.00 in 98.00 W/m2
15:31 40.9 °F 32.9 °F 29.99 in NW 2.0 mph 11.0 mph 73% 0.00 in 98.00 W/m2
15:36 40.6 °F 32.6 °F 29.99 in NW 1.0 mph 10.0 mph 73% 0.00 in 93.00 W/m2
15:41 40.3 °F 33.0 °F 29.99 in Calm   10.0 mph 75% 0.00 in 95.00 W/m2
15:46 40.0 °F 32.7 °F 29.99 in Calm   1.0 mph 75% 0.00 in 72.00 W/m2
15:51 39.7 °F 32.4 °F 29.99 in NW 1.0 mph 1.0 mph 75% 0.00 in 60.00 W/m2
15:56 39.5 °F 33.2 °F 29.99 in Calm   1.0 mph 78% 0.00 in 65.00 W/m2
16:01 39.2 °F 32.9 °F 29.99 in Calm   1.0 mph 78% 0.00 in 65.00 W/m2
16:06 38.9 °F 32.6 °F 29.99 in NW 1.0 mph 2.0 mph 78% 0.00 in 72.00 W/m2
16:11 38.8 °F 32.9 °F 29.99 in Calm   1.0 mph 79% 0.00 in 329.00 W/m2
16:16 38.8 °F 33.2 °F 29.99 in NW 1.0 mph 2.0 mph 80% 0.00 in 301.00 W/m2
16:21 38.9 °F 32.0 °F 29.99 in Calm   2.0 mph 76% 0.00 in 287.00 W/m2
16:26 39.2 °F 32.0 °F 29.99 in Calm   4.0 mph 75% 0.00 in 260.00 W/m2
16:31 39.5 °F 32.2 °F 29.99 in Calm   2.0 mph 75% 0.00 in 204.00 W/m2
16:36 39.6 °F 32.3 °F 29.99 in Calm   3.0 mph 75% 0.00 in 181.00 W/m2
16:41 39.8 °F 32.5 °F 29.99 in Calm   2.0 mph 75% 0.00 in 63.00 W/m2
16:46 39.9 °F 33.0 °F 29.99 in Calm   2.0 mph 76% 0.00 in 63.00 W/m2
16:51 39.8 °F 32.9 °F 29.99 in Calm   2.0 mph 76% 0.00 in 70.00 W/m2
16:56 39.8 °F 32.9 °F 30.00 in Calm   1.0 mph 76% 0.00 in 74.00 W/m2
17:01 39.7 °F 32.8 °F 30.00 in Calm     76% 0.00 in 72.00 W/m2
17:06 39.6 °F 33.3 °F 30.00 in Calm     78% 0.00 in 62.00 W/m2
17:11 39.5 °F 33.2 °F 30.00 in Calm   2.0 mph 78% 0.00 in 53.00 W/m2
17:16 39.5 °F 33.5 °F 30.00 in Calm   1.0 mph 79% 0.00 in 42.00 W/m2
17:21 39.4 °F 33.8 °F 30.00 in NNE 1.0 mph 3.0 mph 80% 0.00 in 40.00 W/m2
17:26 39.3 °F 33.3 °F 30.00 in North 1.0 mph 1.0 mph 79% 0.00 in 39.00 W/m2
17:31 39.2 °F 32.9 °F 30.00 in North 1.0 mph 4.0 mph 78% 0.00 in 35.00 W/m2
17:36 39.1 °F 32.8 °F 30.00 in Calm   4.0 mph 78% 0.00 in 32.00 W/m2
17:41 38.9 °F 32.6 °F 30.00 in NNE 1.0 mph 1.0 mph 78% 0.00 in 25.00 W/m2
17:46 38.8 °F 32.5 °F 30.00 in Calm   2.0 mph 78% 0.00 in 18.00 W/m2
17:51 38.6 °F 33.0 °F 30.00 in Calm   3.0 mph 80% 0.00 in 12.00 W/m2
17:56 38.5 °F 32.9 °F 30.00 in Calm     80% 0.00 in 5.00 W/m2
18:01 38.4 °F 32.8 °F 30.00 in Calm     80% 0.00 in 0.00 W/m2
18:06 38.3 °F 32.4 °F 30.00 in Calm     79% 0.00 in 0.00 W/m2
18:11 38.1 °F 32.8 °F 30.00 in Calm     81% 0.00 in 0.00 W/m2
18:16 37.9 °F 32.3 °F 30.00 in Calm     80% 0.00 in 0.00 W/m2
18:21 37.5 °F 31.9 °F 30.00 in Calm     80% 0.00 in 0.00 W/m2
18:26 37.2 °F 31.9 °F 30.01 in Calm     81% 0.00 in 0.00 W/m2
18:31 37.0 °F 31.7 °F 30.01 in Calm     81% 0.00 in 0.00 W/m2
18:36 36.8 °F 31.8 °F 30.01 in Calm     82% 0.00 in 0.00 W/m2
18:41 36.4 °F 31.7 °F 30.01 in Calm     83% 0.00 in 0.00 W/m2
18:46 36.0 °F 31.4 °F 30.01 in Calm     83% 0.00 in 0.00 W/m2
18:51 35.7 °F 31.4 °F 30.01 in Calm     84% 0.00 in 0.00 W/m2
18:56 35.5 °F 31.1 °F 30.01 in Calm     84% 0.00 in 0.00 W/m2
19:01 35.2 °F 30.9 °F 30.01 in Calm     84% 0.00 in 0.00 W/m2
19:06 34.9 °F 30.9 °F 30.02 in Calm     85% 0.00 in 0.00 W/m2
19:11 34.7 °F 30.7 °F 30.02 in Calm     85% 0.00 in 0.00 W/m2
19:16 34.6 °F 30.9 °F 30.02 in Calm     86% 0.00 in 0.00 W/m2
19:21 34.5 °F 30.8 °F 30.02 in Calm     86% 0.00 in 0.00 W/m2
19:26 34.3 °F 30.6 °F 30.02 in Calm     86% 0.00 in 0.00 W/m2
19:31 34.2 °F 30.5 °F 30.02 in Calm     86% 0.00 in 0.00 W/m2
19:36 34.0 °F 30.5 °F 30.02 in Calm     87% 0.00 in 0.00 W/m2
19:41 33.9 °F 30.5 °F 30.02 in Calm     87% 0.00 in 0.00 W/m2
19:46 33.8 °F 30.4 °F 30.02 in Calm     87% 0.00 in 0.00 W/m2
19:51 33.7 °F 30.2 °F 30.03 in Calm     87% 0.00 in 0.00 W/m2
19:56 33.6 °F 30.1 °F 30.03 in Calm     87% 0.00 in 0.00 W/m2
20:01 33.5 °F 30.3 °F 30.03 in Calm     88% 0.00 in 0.00 W/m2
20:06 33.5 °F 30.3 °F 30.03 in Calm     88% 0.00 in 0.00 W/m2
20:11 33.4 °F 30.2 °F 30.03 in Calm     88% 0.00 in 0.00 W/m2
20:16 33.4 °F 30.0 °F 30.03 in Calm     87% 0.00 in 0.00 W/m2
20:21 33.3 °F 29.9 °F 30.03 in Calm     87% 0.00 in 0.00 W/m2
20:26 33.1 °F 29.9 °F 30.03 in Calm     88% 0.00 in 0.00 W/m2
20:31 33.0 °F 29.6 °F 30.03 in Calm     87% 0.00 in 0.00 W/m2
20:36 32.9 °F 29.5 °F 30.03 in Calm     87% 0.00 in 0.00 W/m2
20:41 32.9 °F 29.5 °F 30.04 in Calm     87% 0.00 in 0.00 W/m2
20:46 32.8 °F 29.6 °F 30.04 in Calm     88% 0.00 in 0.00 W/m2
20:51 32.7 °F 29.3 °F 30.04 in Calm     87% 0.00 in 0.00 W/m2
20:56 32.7 °F 29.5 °F 30.04 in Calm     88% 0.00 in 0.00 W/m2
21:01 32.6 °F 29.5 °F 30.04 in Calm     88% 0.00 in 0.00 W/m2
21:06 32.6 °F 29.5 °F 30.04 in Calm     88% 0.00 in 0.00 W/m2
21:11 32.6 °F 29.5 °F 30.04 in Calm   3.0 mph 88% 0.00 in 0.00 W/m2
21:16 32.5 °F 29.1 °F 30.04 in Calm   1.0 mph 87% 0.00 in 0.00 W/m2
21:21 32.5 °F 29.4 °F 30.04 in Calm     88% 0.00 in 0.00 W/m2
21:26 32.4 °F 29.2 °F 30.04 in East 1.0 mph 4.0 mph 88% 0.00 in 0.00 W/m2
21:31 32.4 °F 29.2 °F 30.04 in Calm   2.0 mph 88% 0.00 in 0.00 W/m2
21:36 32.4 °F 29.2 °F 30.05 in Calm     88% 0.00 in 0.00 W/m2
21:41 32.3 °F 29.1 °F 30.05 in Calm     88% 0.00 in 0.00 W/m2
21:46 32.3 °F 29.1 °F 30.05 in Calm     88% 0.00 in 0.00 W/m2
21:51 32.2 °F 29.0 °F 30.05 in Calm     88% 0.00 in 0.00 W/m2
21:56 32.1 °F 29.0 °F 30.05 in Calm     88% 0.00 in 0.00 W/m2
22:01 32.1 °F 29.0 °F 30.05 in Calm     88% 0.00 in 0.00 W/m2
22:06 32.1 °F 29.0 °F 30.05 in Calm     88% 0.00 in 0.00 W/m2
22:11 32.0 °F 28.9 °F 30.05 in Calm     88% 0.00 in 0.00 W/m2
22:16 31.9 °F 28.8 °F 30.05 in Calm     88% 0.00 in 0.00 W/m2
22:21 31.9 °F 28.8 °F 30.05 in Calm     88% 0.00 in 0.00 W/m2
22:26 32.0 °F 28.9 °F 30.05 in Calm     88% 0.00 in 0.00 W/m2
22:31 31.9 °F 28.8 °F 30.05 in Calm     88% 0.00 in 0.00 W/m2
22:36 31.9 °F 28.8 °F 30.05 in Calm     88% 0.00 in 0.00 W/m2
22:41 32.0 °F 28.9 °F 30.05 in East 1.0 mph 2.0 mph 88% 0.00 in 0.00 W/m2
22:46 32.0 °F 28.9 °F 30.05 in Calm   4.0 mph 88% 0.00 in 0.00 W/m2
22:51 32.0 °F 28.9 °F 30.05 in East 6.0 mph 6.0 mph 88% 0.00 in 0.00 W/m2
22:56 32.1 °F 29.0 °F 30.05 in East 6.0 mph 6.0 mph 88% 0.00 in 0.00 W/m2
23:01 32.1 °F 29.0 °F 30.05 in East 5.0 mph 5.0 mph 88% 0.00 in 0.00 W/m2
23:06 32.1 °F 29.0 °F 30.05 in East 5.0 mph 7.0 mph 88% 0.00 in 0.00 W/m2
23:11 32.1 °F 29.0 °F 30.05 in East 4.0 mph 5.0 mph 88% 0.00 in 0.00 W/m2
23:16 32.1 °F 29.0 °F 30.05 in Calm   1.0 mph 88% 0.00 in 0.00 W/m2
23:21 32.1 °F 29.0 °F 30.05 in Calm   4.0 mph 88% 0.00 in 0.00 W/m2
23:26 32.1 °F 29.0 °F 30.06 in East 2.0 mph 2.0 mph 88% 0.00 in 0.00 W/m2
23:31 32.2 °F 29.0 °F 30.05 in Calm   1.0 mph 88% 0.00 in 0.00 W/m2
23:36 32.2 °F 29.0 °F 30.06 in Calm     88% 0.00 in 0.00 W/m2
23:41 32.2 °F 29.0 °F 30.06 in East 1.0 mph 1.0 mph 88% 0.00 in 0.00 W/m2
23:46 32.2 °F 28.8 °F 30.06 in Calm     87% 0.00 in 0.00 W/m2
23:51 32.2 °F 28.8 °F 30.06 in ESE 11.0 mph 11.0 mph 87% 0.00 in 0.00 W/m2
23:56 32.2 °F 28.8 °F 30.06 in East 4.0 mph 6.0 mph 87% 0.00 in 0.00 W/m2
Foresthill Weather
 WU-history PHP script courtesy of   Juneau County Weather.
powered by Cumulus v1.9.3 (1059)
Ambient Weather VWS v14.00
Top Contact Website Map Copyright © 2007 - 2018 Foresthillweather.com Never base important decisions on this or any weather information obtained from the Internet